Time;durP1;ratioP1;P1;durP2;ratioP2;P2;SDS_P1;SDS_P2;PMS_P1;PMS_P2;Temp;Humidity;BMP_temperature;BMP_pressure;BME280_temperature;BME280_humidity;BME280_pressure;Samples;Min_cycle;Max_cycle;Signal;HPM_P1;HPM_P2
2023/06/03 00:01:58;;;;;;;4.65;3.45;;;;;;;19.06;100.00;99996.44;4988204;28;20168;-81
2023/06/03 00:04:24;;;;;;;6.57;3.13;;;;;;;19.16;100.00;100024.38;4985609;28;20445;-79
2023/06/03 00:06:49;;;;;;;5.60;3.20;;;;;;;18.37;100.00;99886.72;4987398;28;20069;-79
2023/06/03 00:09:15;;;;;;;6.57;3.55;;;;;;;19.09;100.00;100016.72;4983791;28;20038;-79
2023/06/03 00:11:42;;;;;;;3.88;2.08;;;;;;;18.85;100.00;99982.22;4981386;28;20398;-79
2023/06/03 00:14:08;;;;;;;4.18;2.50;;;;;;;18.92;100.00;100010.28;4987348;28;20050;-79
2023/06/03 00:16:35;;;;;;;5.47;2.47;;;;;;;18.93;100.00;100025.31;4987044;28;20049;-82
2023/06/03 00:19:01;;;;;;;4.47;3.25;;;;;;;18.90;100.00;100027.25;4981917;28;20124;-80
2023/06/03 00:21:27;;;;;;;7.35;4.68;;;;;;;18.69;100.00;99989.94;4985160;28;20097;-81
2023/06/03 00:23:53;;;;;;;4.88;3.03;;;;;;;18.22;100.00;99905.03;4986951;28;20045;-77
2023/06/03 00:26:20;;;;;;;4.10;2.65;;;;;;;18.33;100.00;99937.34;4980688;28;20856;-78
2023/06/03 00:28:46;;;;;;;5.25;3.08;;;;;;;18.51;100.00;99985.34;4984820;28;20057;-78
2023/06/03 00:31:11;;;;;;;3.83;2.60;;;;;;;17.92;100.00;99897.31;4978823;28;20050;-78
2023/06/03 00:33:37;;;;;;;5.40;2.83;;;;;;;18.02;100.00;99928.81;4984732;28;20522;-79
2023/06/03 00:36:02;;;;;;;5.72;2.33;;;;;;;18.58;100.00;100020.50;4986644;28;20540;-78
2023/06/03 00:38:28;;;;;;;4.57;2.45;;;;;;;18.57;100.00;100035.59;4984512;28;20456;-76
2023/06/03 00:40:53;;;;;;;4.95;2.63;;;;;;;17.93;100.00;99920.31;4984735;28;20049;-78
2023/06/03 00:43:20;;;;;;;4.85;2.80;;;;;;;18.47;100.00;100020.91;4986653;28;20058;-80
2023/06/03 00:45:45;;;;;;;6.25;3.25;;;;;;;18.32;100.00;100003.78;4984771;28;20038;-79
2023/06/03 00:48:12;;;;;;;4.43;2.78;;;;;;;18.18;100.00;99983.06;4982165;28;20498;-79
2023/06/03 00:50:39;;;;;;;4.85;2.92;;;;;;;18.34;100.00;100018.75;4984525;28;20026;-79
2023/06/03 00:53:07;;;;;;;6.57;4.07;;;;;;;17.40;100.00;99871.88;4986624;28;20054;-79
2023/06/03 00:55:34;;;;;;;6.15;3.28;;;;;;;17.48;100.00;99897.16;4981491;28;20059;-77
2023/06/03 00:58:00;;;;;;;6.68;3.20;;;;;;;18.08;100.00;99995.84;4985430;28;20062;-80
2023/06/03 01:00:26;;;;;;;5.40;3.60;;;;;;;18.01;100.00;99959.81;4985398;28;20181;-79
2023/06/03 01:02:52;;;;;;;7.97;1.98;;;;;;;18.27;100.00;100011.06;4979711;28;20548;-79
2023/06/03 01:05:18;;;;;;;9.32;3.28;;;;;;;17.65;100.00;99919.56;4985875;28;20117;-79
2023/06/03 01:08:23;;;;;;;5.05;3.00;;;;;;;18.18;100.00;99993.69;4985402;28;20050;-79
2023/06/03 01:11:22;;;;;;;5.53;1.95;;;;;;;18.08;100.00;99990.53;4985568;28;20115;-79
2023/06/03 01:14:01;;;;;;;4.68;3.10;;;;;;;17.63;100.00;99926.69;4985605;28;20062;-80
2023/06/03 01:16:31;;;;;;;5.13;3.10;;;;;;;17.97;100.00;99989.19;4983544;28;20089;-78
2023/06/03 01:18:57;;;;;;;7.75;3.30;;;;;;;17.37;100.00;99885.22;4984768;28;20096;-79
2023/06/03 01:21:24;;;;;;;3.42;2.70;;;;;;;17.64;100.00;99931.09;5012531;28;20161;-79
2023/06/03 01:23:51;;;;;;;4.45;2.55;;;;;;;17.25;100.00;99860.00;4987075;28;20053;-80
2023/06/03 01:26:19;;;;;;;5.95;3.63;;;;;;;17.89;100.00;99979.72;4984008;28;20058;-78
2023/06/03 01:28:49;;;;;;;5.07;3.35;;;;;;;17.33;100.00;99881.84;4989167;28;20572;-78
2023/06/03 01:31:16;;;;;;;11.75;3.10;;;;;;;17.39;100.00;99901.94;4989478;28;20049;-81
2023/06/03 01:33:42;;;;;;;5.80;2.58;;;;;;;17.86;100.00;100002.84;4987015;28;20493;-81
2023/06/03 01:36:07;;;;;;;5.13;3.45;;;;;;;17.81;100.00;99975.63;4988311;28;20038;-80
2023/06/03 01:38:34;;;;;;;5.20;2.63;;;;;;;17.31;100.00;99902.22;4982584;28;20685;-75
2023/06/03 01:41:01;;;;;;;7.18;3.17;;;;;;;17.68;100.00;99972.53;4972652;28;20043;-78
2023/06/03 01:43:27;;;;;;;5.45;3.50;;;;;;;17.73;100.00;99990.00;4988674;28;20069;-77
2023/06/03 01:45:54;;;;;;;3.88;2.55;;;;;;;17.16;100.00;99893.06;4991873;28;20046;-77
2023/06/03 01:48:21;;;;;;;6.32;3.05;;;;;;;17.08;100.00;99898.59;4980113;28;20050;-79
2023/06/03 01:50:47;;;;;;;5.68;3.13;;;;;;;17.64;100.00;100002.75;4984389;28;20061;-78
2023/06/03 01:53:13;;;;;;;5.43;2.70;;;;;;;17.43;100.00;99969.88;4985806;28;20038;-79
2023/06/03 01:55:38;;;;;;;4.82;3.05;;;;;;;17.05;100.00;99905.81;4988934;28;20046;-78
2023/06/03 01:58:04;;;;;;;3.85;2.50;;;;;;;17.04;100.00;99902.31;4986017;28;20057;-78
2023/06/03 02:00:29;;;;;;;4.65;2.72;;;;;;;16.92;100.00;99904.50;4985338;28;20069;-80
2023/06/03 02:02:55;;;;;;;5.50;3.42;;;;;;;16.87;100.00;99894.03;4983950;28;20054;-79
2023/06/03 02:05:20;;;;;;;4.68;2.75;;;;;;;17.57;100.00;100002.09;4989592;28;20038;-79
2023/06/03 02:07:46;;;;;;;7.22;2.83;;;;;;;17.53;100.00;100024.34;4987437;28;20058;-78
2023/06/03 02:10:13;;;;;;;3.65;2.97;;;;;;;17.63;100.00;100031.06;5007175;28;20049;-78
2023/06/03 02:12:38;;;;;;;9.13;3.55;;;;;;;17.67;100.00;100030.03;4986603;28;20497;-80
2023/06/03 02:15:04;;;;;;;4.80;3.15;;;;;;;17.68;100.00;100031.78;4989399;28;20053;-77
2023/06/03 02:17:30;;;;;;;3.08;2.08;;;;;;;16.92;100.00;99915.94;4986383;28;20030;-77
2023/06/03 02:19:57;;;;;;;4.97;2.90;;;;;;;17.52;100.00;99999.59;4989281;28;20041;-78
2023/06/03 02:22:23;;;;;;;6.90;3.63;;;;;;;17.67;100.00;100022.06;4988984;28;20055;-80
2023/06/03 02:24:49;;;;;;;3.38;2.00;;;;;;;16.68;100.00;99868.13;4982296;28;20111;-80
2023/06/03 02:27:19;;;;;;;3.97;2.65;;;;;;;17.39;100.00;100019.50;4985073;28;20078;-78
2023/06/03 02:29:50;;;;;;;5.03;2.65;;;;;;;17.35;100.00;100043.53;4988982;28;20108;-78
2023/06/03 02:32:16;;;;;;;3.10;1.92;;;;;;;17.12;100.00;100023.13;4979181;28;20035;-80
2023/06/03 02:34:46;;;;;;;5.50;2.78;;;;;;;16.27;100.00;99933.03;5000180;28;20065;-81
2023/06/03 02:37:15;;;;;;;7.35;3.30;;;;;;;16.19;100.00;99962.41;4980834;28;20042;-79
2023/06/03 02:39:42;;;;;;;6.55;3.40;;;;;;;16.89;100.00;100077.72;4977132;28;20158;-79
2023/06/03 02:42:08;;;;;;;4.57;3.28;;;;;;;16.17;100.00;99998.63;4974530;28;20786;-78
2023/06/03 02:44:35;;;;;;;3.45;2.38;;;;;;;16.50;100.00;100080.63;4987391;28;20903;-79
2023/06/03 02:47:01;;;;;;;5.22;2.78;;;;;;;16.22;100.00;100078.81;4983136;28;20042;-79
2023/06/03 02:49:26;;;;;;;5.40;3.47;;;;;;;16.50;100.00;100103.63;4988308;28;20050;-77
2023/06/03 02:51:52;;;;;;;5.30;3.15;;;;;;;16.27;100.00;100113.06;4984222;28;20054;-77
2023/06/03 02:54:17;;;;;;;3.15;2.35;;;;;;;15.72;100.00;100003.50;4986759;28;20050;-80
2023/06/03 02:56:43;;;;;;;7.72;3.50;;;;;;;16.29;100.00;100084.78;4988987;28;20085;-80
2023/06/03 02:59:08;;;;;;;5.85;3.47;;;;;;;15.76;100.00;99986.63;4988897;28;20034;-79
2023/06/03 03:01:35;;;;;;;8.38;3.97;;;;;;;16.45;100.00;100099.31;4986104;28;20050;-81
2023/06/03 03:04:01;;;;;;;3.83;2.88;;;;;;;16.63;100.00;100103.22;5001238;28;20104;-78
2023/06/03 03:06:26;;;;;;;14.40;3.97;;;;;;;16.63;100.00;100105.00;4982534;28;20043;-78
2023/06/03 03:08:53;;;;;;;4.13;2.80;;;;;;;16.18;100.00;99994.25;4969498;28;20393;-79
2023/06/03 03:11:19;;;;;;;4.80;3.15;;;;;;;16.38;100.00;100030.69;4988327;28;20112;-80
2023/06/03 03:13:45;;;;;;;4.47;2.88;;;;;;;16.96;100.00;100096.97;4984852;28;20136;-79
2023/06/03 03:16:11;;;;;;;9.25;2.30;;;;;;;16.55;100.00;100012.53;4987023;28;20494;-79
2023/06/03 03:18:38;;;;;;;5.47;3.42;;;;;;;16.63;100.00;100015.78;4987946;28;20072;-78
2023/06/03 03:21:04;;;;;;;5.45;3.15;;;;;;;17.41;100.00;100130.88;4987937;28;20046;-79
2023/06/03 03:23:30;;;;;;;4.95;2.67;;;;;;;17.48;100.00;100140.34;4982725;28;20039;-78
2023/06/03 03:25:57;;;;;;;3.95;1.88;;;;;;;17.35;100.00;100110.72;4966946;28;20394;-79
2023/06/03 03:28:23;;;;;;;5.88;2.35;;;;;;;16.97;100.00;100038.56;4967577;28;20051;-79
2023/06/03 03:30:49;;;;;;;5.55;2.45;;;;;;;17.00;100.00;100024.38;4976443;28;20054;-79
2023/06/03 03:33:16;;;;;;;5.00;3.10;;;;;;;17.47;100.00;100097.06;4987683;28;20439;-78
2023/06/03 03:35:43;;;;;;;3.85;2.83;;;;;;;17.22;100.00;100059.88;4987655;28;20049;-79
2023/06/03 03:38:09;;;;;;;3.30;1.67;;;;;;;17.92;100.00;100170.75;4984782;28;20097;-81
2023/06/03 03:40:39;;;;;;;4.53;2.58;;;;;;;17.26;100.00;100050.03;4985186;28;20134;-78
2023/06/03 03:43:09;;;;;;;5.53;3.13;;;;;;;17.99;100.00;100174.06;4973086;28;20562;-78
2023/06/03 03:45:36;;;;;;;4.80;2.47;;;;;;;18.11;100.00;100189.56;4976466;28;20062;-78
2023/06/03 03:48:12;;;;;;;3.65;2.50;;;;;;;17.89;100.00;100146.97;4982176;28;20038;-80
2023/06/03 03:50:45;;;;;;;5.50;2.88;;;;;;;18.18;100.00;100205.28;4981986;28;20034;-78
2023/06/03 03:53:15;;;;;;;3.97;2.05;;;;;;;18.28;100.00;100202.25;4986841;28;20038;-78
2023/06/03 03:55:46;;;;;;;5.40;2.70;;;;;;;17.40;100.00;100063.69;4985710;28;20157;-78
2023/06/03 03:58:26;;;;;;;4.50;2.25;;;;;;;18.12;100.00;100169.19;4987570;28;21032;-78
2023/06/03 04:00:59;;;;;;;6.55;3.10;;;;;;;17.92;100.00;100130.94;4986241;28;20034;-79
2023/06/03 04:03:25;;;;;;;9.57;2.90;;;;;;;17.71;100.00;100095.34;4985672;28;20688;-80
2023/06/03 04:05:51;;;;;;;4.38;2.33;;;;;;;17.87;100.00;100094.84;4985819;28;20437;-79
2023/06/03 04:08:46;;;;;;;5.38;2.95;;;;;;;18.14;100.00;100140.78;4986919;28;20113;-79
2023/06/03 04:11:39;;;;;;;6.28;3.58;;;;;;;18.57;100.00;100213.66;4980700;28;20050;-81
2023/06/03 04:14:08;;;;;;;3.95;2.25;;;;;;;18.59;100.00;100190.53;4971974;28;20062;-79
2023/06/03 04:16:53;;;;;;;3.13;2.20;;;;;;;18.61;100.00;100217.03;4986034;28;20058;-79
2023/06/03 04:19:20;;;;;;;6.95;2.40;;;;;;;18.77;100.00;100204.97;4985569;28;20046;-77
2023/06/03 04:21:46;;;;;;;4.45;2.63;;;;;;;18.79;100.00;100200.44;4986538;28;20096;-78
2023/06/03 04:24:13;;;;;;;5.53;3.28;;;;;;;18.63;100.00;100162.91;4983812;28;20873;-78
2023/06/03 04:26:41;;;;;;;5.15;2.60;;;;;;;17.98;100.00;100060.84;4981450;28;20034;-77
2023/06/03 04:29:06;;;;;;;4.05;2.13;;;;;;;19.00;100.00;100217.41;4985806;28;20093;-79
2023/06/03 04:31:33;;;;;;;6.95;2.55;;;;;;;18.53;100.00;100129.63;4982349;28;20450;-80
2023/06/03 04:33:59;;;;;;;6.10;2.58;;;;;;;19.09;100.00;100226.81;4986536;28;20065;-79
2023/06/03 04:36:24;;;;;;;3.67;2.15;;;;;;;18.61;100.00;100155.91;4989940;28;20046;-79
2023/06/03 04:38:51;;;;;;;3.60;2.47;;;;;;;19.16;100.00;100215.03;4986572;28;20062;-80
2023/06/03 04:41:17;;;;;;;6.60;3.28;;;;;;;18.42;100.00;100087.50;4986632;28;20038;-80
2023/06/03 04:43:45;;;;;;;4.30;2.63;;;;;;;18.89;100.00;100166.41;4983070;28;20042;-81
2023/06/03 04:46:14;;;;;;;5.40;2.33;;;;;;;19.10;100.00;100183.31;4985501;28;20108;-81
2023/06/03 04:48:41;;;;;;;4.80;3.03;;;;;;;18.67;100.00;100137.97;4981604;28;20058;-81
2023/06/03 04:51:11;;;;;;;3.47;1.70;;;;;;;19.33;100.00;100225.00;4984066;28;20151;-81
2023/06/03 04:53:36;;;;;;;4.50;2.60;;;;;;;19.43;100.00;100209.53;4984616;28;20042;-82
2023/06/03 04:56:08;;;;;;;5.65;2.50;;;;;;;19.70;100.00;100216.44;4965654;28;20068;-81
2023/06/03 04:58:35;;;;;;;4.88;2.75;;;;;;;19.52;100.00;100158.59;4982913;28;20051;-81
2023/06/03 05:01:03;;;;;;;13.90;3.58;;;;;;;20.30;100.00;100263.66;5000491;28;20164;-81
2023/06/03 05:03:30;;;;;;;5.32;2.13;;;;;;;20.69;100.00;100268.25;4979421;28;20048;-81
2023/06/03 05:05:57;;;;;;;6.00;2.22;;;;;;;20.69;100.00;100236.25;4980013;28;20551;-80
2023/06/03 05:08:33;;;;;;;5.03;2.90;;;;;;;21.04;100.00;100280.00;5009431;28;20499;-81
2023/06/03 05:10:59;;;;;;;6.57;2.88;;;;;;;21.17;100.00;100205.59;4986425;28;20053;-81
2023/06/03 05:13:25;;;;;;;5.30;2.72;;;;;;;21.67;100.00;100234.38;4981576;28;20046;-81
2023/06/03 05:15:51;;;;;;;3.92;2.25;;;;;;;22.14;100.00;100311.31;4976326;28;20057;-81
2023/06/03 05:18:17;;;;;;;3.33;1.95;;;;;;;21.96;100.00;100208.88;4985558;28;20042;-80
2023/06/03 05:20:43;;;;;;;5.43;3.10;;;;;;;22.54;100.00;100293.28;4986286;28;20508;-80
2023/06/03 05:23:09;;;;;;;3.47;2.83;;;;;;;22.77;100.00;100292.94;4986635;28;20026;-81
2023/06/03 05:25:34;;;;;;;4.13;2.53;;;;;;;22.18;100.00;100323.56;4980963;28;20482;-79
2023/06/03 05:28:00;;;;;;;3.58;2.88;;;;;;;22.71;100.00;100252.25;4984300;28;20046;-80
2023/06/03 05:30:25;;;;;;;6.70;3.70;;;;;;;22.79;100.00;100201.06;4983986;28;20093;-77
2023/06/03 05:32:51;;;;;;;5.65;2.30;;;;;;;23.69;100.00;100313.88;4984327;28;20046;-78
2023/06/03 05:35:16;;;;;;;3.25;2.17;;;;;;;23.33;100.00;100263.22;4986729;28;20442;-78
2023/06/03 05:37:41;;;;;;;4.13;2.15;;;;;;;23.75;100.00;100249.25;4986075;28;20069;-80
2023/06/03 05:40:10;;;;;;;5.55;3.60;;;;;;;23.68;100.00;100229.09;4985643;28;20840;-78
2023/06/03 05:42:35;;;;;;;4.47;1.70;;;;;;;24.81;99.10;100328.00;4976372;28;20046;-78
2023/06/03 05:45:01;;;;;;;3.35;2.03;;;;;;;24.35;100.00;100328.03;4979508;28;20050;-80
2023/06/03 05:47:26;;;;;;;4.65;2.35;;;;;;;23.83;100.00;100312.28;4985576;28;20041;-78
2023/06/03 05:49:52;;;;;;;4.35;2.40;;;;;;;23.67;100.00;100325.63;4985178;28;20089;-79
2023/06/03 05:52:18;;;;;;;4.07;1.65;;;;;;;24.66;100.00;100347.72;4978411;28;20092;-81
2023/06/03 05:54:44;;;;;;;2.95;1.55;;;;;;;25.37;93.61;100349.66;4985351;28;20061;-80
2023/06/03 05:57:10;;;;;;;3.88;1.73;;;;;;;24.43;92.39;100280.16;4985397;28;20043;-80
2023/06/03 05:59:35;;;;;;;3.70;2.13;;;;;;;25.40;88.67;100336.91;4985895;28;20022;-79
2023/06/03 06:02:01;;;;;;;6.07;2.75;;;;;;;24.73;90.41;100268.56;4977746;28;20030;-79
2023/06/03 06:04:28;;;;;;;4.38;2.03;;;;;;;25.75;85.44;100362.47;4980687;28;20047;-80
2023/06/03 06:06:53;;;;;;;4.10;2.45;;;;;;;25.82;93.07;100364.66;4986296;28;20054;-78
2023/06/03 06:09:20;;;;;;;2.63;1.60;;;;;;;25.53;83.16;100260.88;4988862;28;20042;-80
2023/06/03 06:11:45;;;;;;;3.15;1.70;;;;;;;25.13;82.88;100225.81;4986730;28;20054;-81
2023/06/03 06:14:11;;;;;;;6.60;1.77;;;;;;;25.33;78.62;100205.75;4982406;28;20062;-80
2023/06/03 06:16:37;;;;;;;4.22;2.47;;;;;;;25.89;83.37;100366.06;4988771;28;20518;-80
2023/06/03 06:19:02;;;;;;;5.25;2.45;;;;;;;25.81;76.54;100295.75;4987126;28;20050;-81
2023/06/03 06:21:28;;;;;;;5.40;2.20;;;;;;;25.89;80.46;100300.66;4988780;28;20490;-79
2023/06/03 06:23:53;;;;;;;4.25;2.50;;;;;;;25.12;83.07;100337.72;4980428;28;20050;-81
2023/06/03 06:26:21;;;;;;;5.13;2.25;;;;;;;25.45;85.00;100337.47;5003474;28;20030;-79
2023/06/03 06:28:46;;;;;;;3.92;2.30;;;;;;;24.88;86.65;100379.50;4982986;28;20406;-78
2023/06/03 06:31:13;;;;;;;7.63;2.28;;;;;;;25.05;85.89;100368.59;4986663;28;20046;-80
2023/06/03 06:33:41;;;;;;;3.47;2.03;;;;;;;24.30;89.95;100351.56;4988541;28;20116;-80
2023/06/03 06:36:16;;;;;;;4.93;2.17;;;;;;;24.27;91.69;100343.72;4987762;28;20050;-78
2023/06/03 06:38:41;;;;;;;5.72;2.40;;;;;;;24.89;85.85;100376.72;4988779;28;20065;-78
2023/06/03 06:41:11;;;;;;;3.08;1.63;;;;;;;24.47;81.21;100366.69;4981024;28;20425;-78
2023/06/03 06:43:39;;;;;;;5.25;2.15;;;;;;;24.68;78.24;100354.72;4989164;28;20050;-80
2023/06/03 06:46:07;;;;;;;4.45;1.50;;;;;;;25.59;78.88;100355.41;4982419;28;20423;-79
2023/06/03 06:48:34;;;;;;;2.00;1.42;;;;;;;24.84;75.32;100288.44;4981774;28;20062;-82
2023/06/03 06:51:00;;;;;;;2.80;1.83;;;;;;;24.76;77.47;100389.16;4986694;28;20504;-80
2023/06/03 06:53:27;;;;;;;2.17;1.60;;;;;;;24.48;80.07;100374.66;4986397;28;20032;-78
2023/06/03 06:55:56;;;;;;;2.70;1.73;;;;;;;23.67;89.50;100390.81;4982843;28;20048;-80
2023/06/03 06:58:30;;;;;;;2.55;1.65;;;;;;;22.65;92.65;100320.34;4978967;28;20051;-82
2023/06/03 07:01:00;;;;;;;4.05;2.03;;;;;;;22.80;92.25;100320.47;4976278;28;20129;-79
2023/06/03 07:03:26;;;;;;;2.90;1.70;;;;;;;23.82;89.62;100313.25;4980967;28;20122;-77
2023/06/03 07:05:54;;;;;;;4.32;2.03;;;;;;;23.58;82.13;100297.56;4987129;28;20181;-77
2023/06/03 07:08:24;;;;;;;6.60;1.88;;;;;;;23.82;82.91;100362.34;4982997;28;20652;-77
2023/06/03 07:10:54;;;;;;;2.30;1.33;;;;;;;23.76;83.35;100330.50;4982395;28;20069;-82
2023/06/03 07:13:21;;;;;;;3.38;2.03;;;;;;;24.44;80.08;100386.50;4984088;28;20054;-78
2023/06/03 07:15:47;;;;;;;3.90;1.45;;;;;;;24.41;81.95;100333.88;4977309;28;20581;-75
2023/06/03 07:18:13;;;;;;;5.60;1.88;;;;;;;24.87;81.38;100389.38;4981506;28;20443;-73
2023/06/03 07:20:44;;;;;;;4.25;2.03;;;;;;;24.09;74.65;100298.25;4979886;28;20778;-75
2023/06/03 07:23:12;;;;;;;3.15;1.63;;;;;;;24.49;74.95;100325.44;4985640;28;20382;-73
2023/06/03 07:25:43;;;;;;;3.40;1.95;;;;;;;25.08;75.17;100403.31;4965416;28;20046;-72
2023/06/03 07:28:13;;;;;;;3.20;1.90;;;;;;;24.78;76.54;100365.78;4979165;28;20112;-72
2023/06/03 07:30:41;;;;;;;4.10;2.53;;;;;;;23.76;75.15;100354.63;4975878;28;20054;-73
2023/06/03 07:33:09;;;;;;;2.65;1.80;;;;;;;24.04;74.16;100420.94;4982650;28;20054;-71
2023/06/03 07:35:35;;;;;;;3.17;1.67;;;;;;;23.14;74.48;100315.09;4984297;28;20087;-73
2023/06/03 07:38:02;;;;;;;4.93;1.67;;;;;;;24.47;71.91;100423.03;4979369;28;20486;-72
2023/06/03 07:40:43;;;;;;;3.63;1.73;;;;;;;25.02;75.15;100431.38;4982890;28;20046;-72
2023/06/03 07:43:09;;;;;;;3.63;1.77;;;;;;;24.10;67.71;100332.16;4976678;28;20085;-72
2023/06/03 07:45:36;;;;;;;2.90;1.60;;;;;;;24.04;69.78;100410.22;4977793;28;20064;-72
2023/06/03 07:48:03;;;;;;;3.35;1.90;;;;;;;23.73;69.35;100333.34;4977925;28;20085;-72
2023/06/03 07:50:29;;;;;;;4.20;2.38;;;;;;;24.16;67.87;100360.41;4974996;28;20137;-72
2023/06/03 07:53:04;;;;;;;2.90;2.03;;;;;;;23.19;65.55;100309.50;4975888;28;20065;-73
2023/06/03 07:55:44;;;;;;;3.80;2.20;;;;;;;23.35;70.45;100393.41;5008414;28;20042;-75
2023/06/03 07:58:11;;;;;;;4.07;1.92;;;;;;;23.75;66.66;100427.94;4977101;28;20049;-74
2023/06/03 08:00:40;;;;;;;2.67;1.80;;;;;;;23.50;66.97;100362.25;4993878;28;20145;-74
2023/06/03 08:03:06;;;;;;;8.43;2.08;;;;;;;24.89;63.49;100442.94;4980871;28;20046;-75
2023/06/03 08:05:36;;;;;;;2.72;1.52;;;;;;;25.39;63.73;100401.47;4978100;28;20042;-73
2023/06/03 08:08:09;;;;;;;6.90;2.08;;;;;;;24.90;58.50;100423.22;4979755;28;20672;-74
2023/06/03 08:10:35;;;;;;;5.80;1.98;;;;;;;24.23;60.86;100349.25;4976990;28;20054;-74
2023/06/03 08:13:02;;;;;;;5.25;2.45;;;;;;;25.28;60.11;100420.94;4983094;28;20277;-73
2023/06/03 08:15:32;;;;;;;3.40;1.60;;;;;;;25.18;56.29;100415.25;4976794;28;20417;-74
2023/06/03 08:17:58;;;;;;;3.42;1.77;;;;;;;23.85;55.74;100351.44;4978730;28;20471;-72
2023/06/03 08:20:27;;;;;;;4.88;2.15;;;;;;;24.95;55.09;100368.28;4973783;28;20107;-73
2023/06/03 08:22:54;;;;;;;2.30;1.38;;;;;;;25.77;53.32;100433.16;4980164;28;20501;-73
2023/06/03 08:25:19;;;;;;;1.80;1.08;;;;;;;25.73;52.47;100439.66;4973487;28;20050;-73
2023/06/03 08:27:45;;;;;;;4.70;2.50;;;;;;;25.23;51.80;100444.53;4983621;28;20135;-75
2023/06/03 08:30:15;;;;;;;3.50;1.65;;;;;;;24.68;52.31;100373.50;4974445;28;20050;-75
2023/06/03 08:32:42;;;;;;;28.00;2.22;;;;;;;24.73;52.36;100443.00;4975853;28;20654;-73
2023/06/03 08:35:09;;;;;;;3.22;1.70;;;;;;;24.28;54.31;100353.47;4976341;28;20072;-73
2023/06/03 08:37:35;;;;;;;7.97;2.72;;;;;;;24.31;52.54;100291.63;4979790;28;20050;-74
2023/06/03 08:40:09;;;;;;;6.75;2.08;;;;;;;25.55;54.30;100410.31;4975272;28;20449;-74
2023/06/03 08:42:42;;;;;;;4.80;1.30;;;;;;;26.10;51.77;100443.59;4976869;28;20055;-74
2023/06/03 08:45:18;;;;;;;2.75;1.35;;;;;;;24.43;54.64;100416.97;4970681;28;20150;-73
2023/06/03 08:48:22;;;;;;;3.95;1.63;;;;;;;25.42;55.40;100431.69;4979755;28;20058;-73
2023/06/03 08:50:49;;;;;;;2.88;1.42;;;;;;;25.39;54.09;100436.41;4959155;28;20054;-74
2023/06/03 08:53:15;;;;;;;3.83;1.80;;;;;;;24.64;53.43;100347.81;4982063;28;20053;-74
2023/06/03 08:55:41;;;;;;;4.75;2.28;;;;;;;26.20;52.94;100416.97;4978490;28;20089;-74
2023/06/03 08:58:23;;;;;;;3.28;1.80;;;;;;;25.85;51.18;100457.75;4971365;28;20124;-75
2023/06/03 09:00:55;;;;;;;5.10;2.13;;;;;;;26.47;49.71;100430.44;4974635;28;20054;-72
2023/06/03 09:03:22;;;;;;;4.28;2.05;;;;;;;25.28;51.40;100369.88;4983514;28;20054;-72
2023/06/03 09:05:48;;;;;;;4.80;3.30;;;;;;;25.78;52.00;100425.00;4978848;28;20168;-72
2023/06/03 09:08:16;;;;;;;2.33;1.30;;;;;;;26.82;52.27;100352.72;4982347;28;20065;-73
2023/06/03 09:10:44;;;;;;;2.33;1.65;;;;;;;27.28;50.81;100435.78;4975411;28;20038;-73
2023/06/03 09:13:13;;;;;;;3.38;1.45;;;;;;;25.68;52.42;100451.59;4989064;28;20101;-73
2023/06/03 09:15:41;;;;;;;3.35;1.38;;;;;;;26.17;51.91;100430.63;4981312;28;20518;-73
2023/06/03 09:18:07;;;;;;;4.75;2.00;;;;;;;25.84;52.26;100440.72;4978388;28;20122;-73
2023/06/03 09:20:35;;;;;;;5.18;3.15;;;;;;;25.62;52.58;100349.84;4982925;28;20105;-72
2023/06/03 09:23:01;;;;;;;2.53;1.42;;;;;;;25.74;53.37;100438.72;5011878;28;20138;-73
2023/06/03 09:25:28;;;;;;;2.78;1.70;;;;;;;25.11;53.54;100359.31;4978986;28;20804;-74
2023/06/03 09:27:54;;;;;;;4.07;2.22;;;;;;;25.17;56.08;100451.09;4976425;28;20058;-74
2023/06/03 09:30:21;;;;;;;4.88;1.50;;;;;;;25.44;55.76;100436.97;4983873;28;20042;-73
2023/06/03 09:32:47;;;;;;;3.85;2.42;;;;;;;24.89;56.26;100449.22;4983912;28;20189;-73
2023/06/03 09:35:12;;;;;;;4.10;2.03;;;;;;;25.18;56.90;100452.00;4980021;28;20677;-73
2023/06/03 09:37:38;;;;;;;2.90;1.65;;;;;;;24.82;55.30;100396.84;4974734;28;20132;-74
2023/06/03 09:40:09;;;;;;;3.05;1.67;;;;;;;24.95;57.22;100386.22;4972149;28;20604;-74
2023/06/03 09:42:45;;;;;;;4.85;2.17;;;;;;;24.53;54.70;100428.91;4971607;28;20081;-70
2023/06/03 09:45:34;;;;;;;2.65;1.58;;;;;;;24.13;56.25;100457.13;4979887;28;20050;-69
2023/06/03 09:48:01;;;;;;;3.50;1.80;;;;;;;23.82;57.03;100377.56;4977780;28;20112;-69
2023/06/03 09:50:28;;;;;;;3.22;1.35;;;;;;;24.27;58.62;100467.94;4980263;28;20687;-68
2023/06/03 09:52:54;;;;;;;2.28;1.55;;;;;;;23.88;58.23;100380.75;4973641;28;20040;-68
2023/06/03 09:55:22;;;;;;;5.28;2.38;;;;;;;24.31;60.93;100444.50;4983102;28;20049;-68
2023/06/03 09:58:13;;;;;;;6.95;1.83;;;;;;;24.59;60.82;100458.09;4970507;28;20829;-69
2023/06/03 10:00:49;;;;;;;4.13;1.88;;;;;;;24.41;60.97;100358.03;4957553;28;20051;-70
2023/06/03 10:03:19;;;;;;;2.35;1.60;;;;;;;25.10;57.28;100363.81;4974225;28;20042;-70
2023/06/03 10:05:45;;;;;;;4.95;2.08;;;;;;;26.19;56.02;100450.22;5007305;28;20096;-69
2023/06/03 10:08:11;;;;;;;3.28;1.83;;;;;;;25.40;54.06;100387.06;4971344;28;21621;-68
2023/06/03 10:10:55;;;;;;;3.88;2.00;;;;;;;25.45;52.95;100315.09;4983053;28;20480;-69
2023/06/03 10:13:24;;;;;;;5.43;2.05;;;;;;;26.12;54.19;100352.91;4964985;28;20055;-69
2023/06/03 10:15:52;;;;;;;8.75;2.10;;;;;;;24.21;55.72;100379.81;4979687;28;20149;-71
2023/06/03 10:18:17;;;;;;;15.00;3.80;;;;;;;25.64;57.63;100471.56;4976634;28;20493;-71
2023/06/03 10:20:43;;;;;;;2.55;1.77;;;;;;;26.11;55.46;100392.41;4981164;28;20038;-70
2023/06/03 10:23:11;;;;;;;3.45;2.40;;;;;;;26.82;53.44;100476.59;4986242;28;20034;-71
2023/06/03 10:25:45;;;;;;;3.75;2.15;;;;;;;26.29;52.83;100384.97;4986486;28;20169;-70
2023/06/03 10:28:11;;;;;;;5.53;2.33;;;;;;;27.16;53.91;100388.97;4972825;28;20027;-68
2023/06/03 10:30:39;;;;;;;2.30;1.60;;;;;;;27.97;51.68;100470.50;4986230;28;20034;-75
2023/06/03 10:33:08;;;;;;;2.58;1.52;;;;;;;25.96;51.74;100379.09;4987244;28;20109;-73
2023/06/03 10:35:34;;;;;;;2.47;1.23;;;;;;;24.82;55.11;100367.31;4980260;28;20054;-78
2023/06/03 10:38:02;;;;;;;3.30;1.80;;;;;;;26.39;53.67;100395.97;4988368;28;20038;-76
2023/06/03 10:40:28;;;;;;;5.03;2.03;;;;;;;25.50;56.24;100460.78;4979651;28;20123;-75
2023/06/03 10:42:55;;;;;;;3.55;2.35;;;;;;;26.25;54.83;100409.47;4980797;28;20499;-75
2023/06/03 10:45:22;;;;;;;2.85;2.13;;;;;;;27.22;52.90;100473.06;4986466;28;20037;-77
2023/06/03 10:47:50;;;;;;;2.75;1.48;;;;;;;27.22;51.62;100478.44;5010618;28;20382;-76
2023/06/03 10:50:47;;;;;;;2.20;1.15;;;;;;;26.84;51.23;100393.88;4980147;28;20038;-77
2023/06/03 10:53:38;;;;;;;3.05;1.67;;;;;;;26.61;52.30;100473.50;4977815;28;20125;-77
2023/06/03 10:56:13;;;;;;;11.35;2.83;;;;;;;27.57;51.01;100470.59;4981112;28;20065;-76
2023/06/03 10:58:42;;;;;;;2.40;1.63;;;;;;;27.16;50.76;100397.03;4987534;28;20043;-76
2023/06/03 11:01:08;;;;;;;2.78;1.65;;;;;;;26.85;52.56;100472.81;4982151;28;20041;-74
2023/06/03 11:03:54;;;;;;;4.95;1.50;;;;;;;27.89;50.82;100462.09;4985510;28;20086;-75
2023/06/03 11:06:25;;;;;;;3.03;2.03;;;;;;;27.76;50.85;100489.03;4977085;28;20482;-75
2023/06/03 11:09:02;;;;;;;4.57;1.25;;;;;;;28.27;50.87;100480.03;4985647;28;20069;-76
2023/06/03 11:11:44;;;;;;;3.28;1.95;;;;;;;28.50;49.77;100490.03;4975838;28;20062;-76
2023/06/03 11:14:29;;;;;;;3.88;1.50;;;;;;;27.30;50.11;100493.13;4978901;28;20114;-73
2023/06/03 11:16:58;;;;;;;3.85;1.73;;;;;;;27.93;50.78;100494.16;4976713;28;20046;-74
2023/06/03 11:19:36;;;;;;;5.30;1.75;;;;;;;27.72;51.30;100484.81;4976895;28;20142;-72
2023/06/03 11:22:09;;;;;;;4.10;1.50;;;;;;;27.75;50.58;100487.31;4977084;28;20117;-74
2023/06/03 11:24:38;;;;;;;2.40;1.65;;;;;;;27.78;49.98;100396.25;4982041;28;20034;-73
2023/06/03 11:27:09;;;;;;;6.63;2.05;;;;;;;27.75;50.24;100490.03;4982160;28;20030;-73
2023/06/03 11:29:48;;;;;;;15.20;7.95;;;;;;;26.93;50.73;100495.59;4986249;28;20061;-74